PWSweather.com
Personal Weather Stations
Station Observations
KB2SBX
Sugarloaf, Sugarloaf, PA 18249

SugarloafSugarloaf, PA 18249

Lat: 41.0126685, Lon: -76.1082041

Elevation: 1030

Station Type: WS-2080

http://sugarloafpaweather.webng.com/weather.shtml

High Low Average
Temperature 65.1°F18.4°F 41.0°F5.0°F 54.9°F12.7°F
Dew Point 56.9°F13.8°F 39.6°F4.2°F 47.9°F8.8°F
Winds 5.4 mph ESE8.7 mph ESE Calm Calm 0.8 mph 1.3 mph
Wind Gusts 15.2 mph24.5 mph -- 4.1 mph6.6 mph
Humidity 97% 58% 79%
Pressure 30.27 in1025.10 in 29.91 in1012.90 in -
Precipitation 0.35 in8.90 in - -
Hour Temp Dew Point Humidity Winds Wind Gusts Pressure Precip Precip Rate Daily Precip Total
12:00 AM 44.6°F7.0°C 41.0°F5.0°C 87% Calm Calm 0.7 mph1.1 kmh 30.14 in1020.7 mb 0.00 in0.0 mm 0.00 in0.0 mm 0.00 in0.0 mm
12:10 AM 44.6°F7.0°C 41.3°F5.2°C 88% Calm Calm 0.7 mph1.1 kmh 30.14 in1020.7 mb 0.00 in0.0 mm 0.00 in0.0 mm 0.00 in0.0 mm
12:20 AM 44.2°F6.8°C 41.5°F5.3°C 90% Calm Calm 0.7 mph1.1 kmh 30.15 in1021.0 mb 0.00 in0.0 mm 0.00 in0.0 mm 0.00 in0.0 mm
12:30 AM 44.1°F6.7°C 41.3°F5.2°C 90% Calm Calm 0.7 mph1.1 kmh 30.15 in1021.0 mb 0.00 in0.0 mm 0.00 in0.0 mm 0.00 in0.0 mm
12:40 AM 43.9°F6.6°C 41.1°F5.1°C 90% Calm Calm 0.7 mph1.1 kmh 30.16 in1021.3 mb 0.00 in0.0 mm 0.00 in0.0 mm 0.00 in0.0 mm
12:50 AM 43.7°F6.5°C 41.2°F5.1°C 91% 0.7 mph NNE1.1 kmh NNE 1.6 mph2.6 kmh 30.15 in1021.0 mb 0.00 in0.0 mm 0.00 in0.0 mm 0.00 in0.0 mm
01:00 AM 43.7°F6.5°C 41.2°F5.1°C 91% Calm Calm 1.6 mph2.6 kmh 30.16 in1021.3 mb 0.00 in0.0 mm 0.00 in0.0 mm 0.00 in0.0 mm
01:10 AM 43.5°F6.4°C 41.1°F5.1°C 91% Calm Calm 0.7 mph1.1 kmh 30.16 in1021.3 mb 0.00 in0.0 mm 0.00 in0.0 mm 0.00 in0.0 mm
01:20 AM 43.5°F6.4°C 41.1°F5.1°C 91% Calm Calm 0.7 mph1.1 kmh 30.16 in1021.3 mb 0.00 in0.0 mm 0.00 in0.0 mm 0.00 in0.0 mm
01:30 AM 43.3°F6.3°C 40.9°F4.9°C 91% Calm Calm 0.7 mph1.1 kmh 30.17 in1021.7 mb 0.00 in0.0 mm 0.00 in0.0 mm 0.00 in0.0 mm
01:40 AM 43.2°F6.2°C 41.0°F5.0°C 92% Calm Calm 0.7 mph1.1 kmh 30.17 in1021.7 mb 0.00 in0.0 mm 0.00 in0.0 mm 0.00 in0.0 mm
01:50 AM 43.2°F6.2°C 41.0°F5.0°C 92% Calm Calm 3.1 mph5.0 kmh 30.18 in1022.0 mb 0.00 in0.0 mm 0.00 in0.0 mm 0.00 in0.0 mm
02:00 AM 43.2°F6.2°C 41.0°F5.0°C 92% Calm Calm 0.7 mph1.1 kmh 30.18 in1022.0 mb 0.00 in0.0 mm 0.00 in0.0 mm 0.00 in0.0 mm
02:10 AM 43.0°F6.1°C 40.8°F4.9°C 92% Calm Calm -- 30.19 in1022.4 mb 0.00 in0.0 mm 0.00 in0.0 mm 0.00 in0.0 mm
02:20 AM 42.8°F6.0°C 40.6°F4.8°C 92% Calm Calm 0.7 mph1.1 kmh 30.19 in1022.4 mb 0.00 in0.0 mm 0.00 in0.0 mm 0.00 in0.0 mm
02:30 AM 42.6°F5.9°C 40.7°F4.8°C 93% Calm Calm 2.2 mph3.5 kmh 30.18 in1022.0 mb 0.00 in0.0 mm 0.00 in0.0 mm 0.00 in0.0 mm
02:40 AM 42.6°F5.9°C 40.7°F4.8°C 93% Calm Calm 0.7 mph1.1 kmh 30.18 in1022.0 mb 0.00 in0.0 mm 0.00 in0.0 mm 0.00 in0.0 mm
02:50 AM 42.3°F5.7°C 40.4°F4.7°C 93% Calm Calm -- 30.19 in1022.4 mb 0.00 in0.0 mm 0.00 in0.0 mm 0.00 in0.0 mm
03:00 AM 42.1°F5.6°C 40.2°F4.6°C 93% Calm Calm 1.6 mph2.6 kmh 30.18 in1022.0 mb 0.00 in0.0 mm 0.00 in0.0 mm 0.00 in0.0 mm
03:10 AM 41.9°F5.5°C 40.0°F4.4°C 93% Calm Calm 0.7 mph1.1 kmh 30.18 in1022.0 mb 0.00 in0.0 mm 0.00 in0.0 mm 0.00 in0.0 mm
03:20 AM 41.9°F5.5°C 40.3°F4.6°C 94% Calm Calm 0.7 mph1.1 kmh 30.19 in1022.4 mb 0.00 in0.0 mm 0.00 in0.0 mm 0.00 in0.0 mm
03:30 AM 41.7°F5.4°C 40.1°F4.5°C 94% Calm Calm 0.7 mph1.1 kmh 30.19 in1022.4 mb 0.00 in0.0 mm 0.00 in0.0 mm 0.00 in0.0 mm
03:40 AM 41.5°F5.3°C 39.9°F4.4°C 94% Calm Calm 0.7 mph1.1 kmh 30.19 in1022.4 mb 0.00 in0.0 mm 0.00 in0.0 mm 0.00 in0.0 mm
03:50 AM 41.4°F5.2°C 39.8°F4.3°C 94% Calm Calm -- 30.20 in1022.7 mb 0.00 in0.0 mm 0.00 in0.0 mm 0.00 in0.0 mm
04:00 AM 41.2°F5.1°C 39.6°F4.2°C 94% Calm Calm 0.7 mph1.1 kmh 30.19 in1022.4 mb 0.00 in0.0 mm 0.00 in0.0 mm 0.00 in0.0 mm
04:10 AM 41.2°F5.1°C 39.6°F4.2°C 94% Calm Calm -- 30.20 in1022.7 mb 0.00 in0.0 mm 0.00 in0.0 mm 0.00 in0.0 mm
04:20 AM 41.2°F5.1°C 39.6°F4.2°C 94% Calm Calm 0.7 mph1.1 kmh 30.20 in1022.7 mb 0.00 in0.0 mm 0.00 in0.0 mm 0.00 in0.0 mm
04:30 AM 41.0°F5.0°C 39.7°F4.3°C 95% Calm Calm 0.7 mph1.1 kmh 30.20 in1022.7 mb 0.00 in0.0 mm 0.00 in0.0 mm 0.00 in0.0 mm
04:40 AM 41.2°F5.1°C 39.9°F4.4°C 95% Calm Calm 1.6 mph2.6 kmh 30.21 in1023.0 mb 0.00 in0.0 mm 0.00 in0.0 mm 0.00 in0.0 mm
04:50 AM 41.2°F5.1°C 39.9°F4.4°C 95% Calm Calm -- 30.21 in1023.0 mb 0.00 in0.0 mm 0.00 in0.0 mm 0.00 in0.0 mm
05:00 AM 41.0°F5.0°C 39.7°F4.3°C 95% Calm Calm 0.7 mph1.1 kmh 30.21 in1023.0 mb 0.00 in0.0 mm 0.00 in0.0 mm 0.00 in0.0 mm
05:10 AM 41.2°F5.1°C 40.1°F4.5°C 96% Calm Calm 0.7 mph1.1 kmh 30.22 in1023.4 mb 0.00 in0.0 mm 0.00 in0.0 mm 0.00 in0.0 mm
05:20 AM 41.4°F5.2°C 40.3°F4.6°C 96% Calm Calm 0.7 mph1.1 kmh 30.22 in1023.4 mb 0.00 in0.0 mm 0.00 in0.0 mm 0.00 in0.0 mm
05:30 AM 41.5°F5.3°C 40.5°F4.7°C 96% Calm Calm 1.6 mph2.6 kmh 30.22 in1023.4 mb 0.00 in0.0 mm 0.00 in0.0 mm 0.00 in0.0 mm
05:40 AM 41.7°F5.4°C 40.7°F4.8°C 96% Calm Calm 0.7 mph1.1 kmh 30.22 in1023.4 mb 0.00 in0.0 mm 0.00 in0.0 mm 0.00 in0.0 mm
05:50 AM 41.9°F5.5°C 40.8°F4.9°C 96% Calm Calm 0.7 mph1.1 kmh 30.22 in1023.4 mb 0.00 in0.0 mm 0.00 in0.0 mm 0.00 in0.0 mm
06:00 AM 42.1°F5.6°C 41.3°F5.2°C 97% Calm Calm 1.6 mph2.6 kmh 30.22 in1023.4 mb 0.00 in0.0 mm 0.00 in0.0 mm 0.00 in0.0 mm
06:10 AM 42.4°F5.8°C 41.7°F5.4°C 97% Calm Calm 0.7 mph1.1 kmh 30.23 in1023.7 mb 0.00 in0.0 mm 0.00 in0.0 mm 0.00 in0.0 mm
06:20 AM 42.6°F5.9°C 41.6°F5.3°C 96% Calm Calm 1.6 mph2.6 kmh 30.23 in1023.7 mb 0.00 in0.0 mm 0.00 in0.0 mm 0.00 in0.0 mm
06:30 AM 42.8°F6.0°C 41.5°F5.3°C 95% Calm Calm 0.7 mph1.1 kmh 30.23 in1023.7 mb 0.00 in0.0 mm 0.00 in0.0 mm 0.00 in0.0 mm
06:40 AM 42.8°F6.0°C 41.5°F5.3°C 95% Calm Calm 1.6 mph2.6 kmh 30.24 in1024.0 mb 0.00 in0.0 mm 0.00 in0.0 mm 0.00 in0.0 mm
06:50 AM 43.2°F6.2°C 41.6°F5.3°C 94% Calm Calm 1.6 mph2.6 kmh 30.24 in1024.0 mb 0.00 in0.0 mm 0.00 in0.0 mm 0.00 in0.0 mm
07:00 AM 43.2°F6.2°C 41.6°F5.3°C 94% Calm Calm 1.6 mph2.6 kmh 30.25 in1024.4 mb 0.00 in0.0 mm 0.00 in0.0 mm 0.00 in0.0 mm
07:10 AM 43.3°F6.3°C 41.7°F5.4°C 94% Calm Calm 1.6 mph2.6 kmh 30.24 in1024.0 mb 0.00 in0.0 mm 0.00 in0.0 mm 0.00 in0.0 mm
07:20 AM 43.5°F6.4°C 41.6°F5.3°C 93% Calm Calm 1.6 mph2.6 kmh 30.25 in1024.4 mb 0.00 in0.0 mm 0.00 in0.0 mm 0.00 in0.0 mm
07:30 AM 43.7°F6.5°C 41.8°F5.4°C 93% Calm Calm 0.7 mph1.1 kmh 30.25 in1024.4 mb 0.00 in0.0 mm 0.00 in0.0 mm 0.00 in0.0 mm
07:50 AM 44.4°F6.9°C 42.8°F6.0°C 94% 0.7 mph NNE1.1 kmh NNE 1.6 mph2.6 kmh 30.25 in1024.4 mb 0.00 in0.0 mm 0.00 in0.0 mm 0.00 in0.0 mm
08:00 AM 45.1°F7.3°C 43.0°F6.1°C 92% Calm Calm 1.6 mph2.6 kmh 30.25 in1024.4 mb 0.00 in0.0 mm 0.00 in0.0 mm 0.00 in0.0 mm
08:20 AM 48.0°F8.9°C 44.9°F7.2°C 89% 0.7 mph NW1.1 kmh NW 1.6 mph2.6 kmh 30.26 in1024.7 mb 0.00 in0.0 mm 0.00 in0.0 mm 0.00 in0.0 mm
08:30 AM 50.0°F10.0°C 45.4°F7.4°C 84% 1.6 mph E2.6 kmh E 3.1 mph5.0 kmh 30.26 in1024.7 mb 0.00 in0.0 mm 0.00 in0.0 mm 0.00 in0.0 mm
08:40 AM 51.3°F10.7°C 45.6°F7.6°C 81% Calm Calm 2.2 mph3.5 kmh 30.27 in1025.1 mb 0.00 in0.0 mm 0.00 in0.0 mm 0.00 in0.0 mm
08:50 AM 52.2°F11.2°C 44.8°F7.1°C 76% Calm Calm 2.2 mph3.5 kmh 30.27 in1025.1 mb 0.00 in0.0 mm 0.00 in0.0 mm 0.00 in0.0 mm
09:00 AM 53.1°F11.7°C 45.4°F7.4°C 75% 1.6 mph ENE2.6 kmh ENE 2.2 mph3.5 kmh 30.26 in1024.7 mb 0.00 in0.0 mm 0.00 in0.0 mm 0.00 in0.0 mm
09:10 AM 54.1°F12.3°C 45.3°F7.4°C 72% Calm Calm 3.1 mph5.0 kmh 30.26 in1024.7 mb 0.00 in0.0 mm 0.00 in0.0 mm 0.00 in0.0 mm
09:20 AM 55.0°F12.8°C 45.4°F7.4°C 70% 0.7 mph ENE1.1 kmh ENE 5.4 mph8.7 kmh 30.25 in1024.4 mb 0.00 in0.0 mm 0.00 in0.0 mm 0.00 in0.0 mm
09:30 AM 55.9°F13.3°C 45.9°F7.7°C 69% 0.7 mph E1.1 kmh E 5.4 mph8.7 kmh 30.25 in1024.4 mb 0.00 in0.0 mm 0.00 in0.0 mm 0.00 in0.0 mm
09:40 AM 56.7°F13.7°C 46.6°F8.1°C 69% Calm Calm 3.1 mph5.0 kmh 30.24 in1024.0 mb 0.00 in0.0 mm 0.00 in0.0 mm 0.00 in0.0 mm
09:50 AM 57.9°F14.4°C 47.4°F8.6°C 68% 1.6 mph ESE2.6 kmh ESE 5.4 mph8.7 kmh 30.24 in1024.0 mb 0.00 in0.0 mm 0.00 in0.0 mm 0.00 in0.0 mm
10:00 AM 59.0°F15.0°C 48.1°F8.9°C 67% 2.2 mph ENE3.5 kmh ENE 6.9 mph11.1 kmh 30.23 in1023.7 mb 0.00 in0.0 mm 0.00 in0.0 mm 0.00 in0.0 mm
10:10 AM 60.4°F15.8°C 48.6°F9.2°C 65% 1.6 mph SE2.6 kmh SE 3.8 mph6.1 kmh 30.22 in1023.4 mb 0.00 in0.0 mm 0.00 in0.0 mm 0.00 in0.0 mm
10:20 AM 61.7°F16.5°C 48.6°F9.2°C 62% 5.4 mph ESE8.7 kmh ESE 11.4 mph18.3 kmh 30.21 in1023.0 mb 0.00 in0.0 mm 0.00 in0.0 mm 0.00 in0.0 mm
10:30 AM 62.2°F16.8°C 49.5°F9.7°C 63% 0.7 mph ESE1.1 kmh ESE 7.6 mph12.2 kmh 30.21 in1023.0 mb 0.00 in0.0 mm 0.00 in0.0 mm 0.00 in0.0 mm
10:40 AM 62.2°F16.8°C 49.9°F9.9°C 64% 2.2 mph ESE3.5 kmh ESE 5.4 mph8.7 kmh 30.21 in1023.0 mb 0.00 in0.0 mm 0.00 in0.0 mm 0.00 in0.0 mm
10:50 AM 64.0°F17.8°C 50.8°F10.4°C 62% 3.1 mph SE5.0 kmh SE 7.6 mph12.2 kmh 30.20 in1022.7 mb 0.00 in0.0 mm 0.00 in0.0 mm 0.00 in0.0 mm
11:00 AM 65.1°F18.4°C 51.4°F10.8°C 61% 1.6 mph SSE2.6 kmh SSE 7.6 mph12.2 kmh 30.20 in1022.7 mb 0.00 in0.0 mm 0.00 in0.0 mm 0.00 in0.0 mm
11:10 AM 64.9°F18.3°C 50.7°F10.4°C 60% 2.2 mph SE3.5 kmh SE 5.4 mph8.7 kmh 30.19 in1022.4 mb 0.00 in0.0 mm 0.00 in0.0 mm 0.00 in0.0 mm
11:20 AM 64.2°F17.9°C 49.6°F9.8°C 59% 1.6 mph ESE2.6 kmh ESE 6.0 mph9.7 kmh 30.19 in1022.4 mb 0.00 in0.0 mm 0.00 in0.0 mm 0.00 in0.0 mm
11:30 AM 63.7°F17.6°C 49.1°F9.5°C 59% 3.1 mph N5.0 kmh N 7.6 mph12.2 kmh 30.19 in1022.4 mb 0.00 in0.0 mm 0.00 in0.0 mm 0.00 in0.0 mm
11:40 AM 62.8°F17.1°C 48.3°F9.1°C 59% 1.6 mph S2.6 kmh S 8.3 mph13.4 kmh 30.19 in1022.4 mb 0.00 in0.0 mm 0.00 in0.0 mm 0.00 in0.0 mm
11:50 AM 62.8°F17.1°C 48.3°F9.1°C 59% 2.2 mph SE3.5 kmh SE 6.9 mph11.1 kmh 30.17 in1021.7 mb 0.00 in0.0 mm 0.00 in0.0 mm 0.00 in0.0 mm
12:00 PM 63.3°F17.4°C 48.8°F9.3°C 59% Calm Calm 5.4 mph8.7 kmh 30.17 in1021.7 mb 0.00 in0.0 mm 0.00 in0.0 mm 0.00 in0.0 mm
12:10 PM 63.3°F17.4°C 48.3°F9.1°C 58% 0.7 mph SE1.1 kmh SE 4.5 mph7.2 kmh 30.17 in1021.7 mb 0.00 in0.0 mm 0.00 in0.0 mm 0.00 in0.0 mm
12:20 PM 63.0°F17.2°C 48.0°F8.9°C 58% 3.1 mph E5.0 kmh E 6.9 mph11.1 kmh 30.16 in1021.3 mb 0.00 in0.0 mm 0.00 in0.0 mm 0.00 in0.0 mm
12:30 PM 62.6°F17.0°C 47.6°F8.7°C 58% 0.7 mph S1.1 kmh S 6.0 mph9.7 kmh 30.16 in1021.3 mb 0.00 in0.0 mm 0.00 in0.0 mm 0.00 in0.0 mm
12:40 PM 62.6°F17.0°C 47.6°F8.7°C 58% 2.2 mph SE3.5 kmh SE 9.2 mph14.8 kmh 30.16 in1021.3 mb 0.00 in0.0 mm 0.00 in0.0 mm 0.00 in0.0 mm
12:50 PM 62.6°F17.0°C 47.6°F8.7°C 58% 0.7 mph ENE1.1 kmh ENE 5.4 mph8.7 kmh 30.16 in1021.3 mb 0.00 in0.0 mm 0.00 in0.0 mm 0.00 in0.0 mm
01:00 PM 62.2°F16.8°C 47.7°F8.7°C 59% 0.7 mph SE1.1 kmh SE 9.8 mph15.8 kmh 30.15 in1021.0 mb 0.00 in0.0 mm 0.00 in0.0 mm 0.00 in0.0 mm
01:10 PM 62.2°F16.8°C 48.2°F9.0°C 60% 0.7 mph ESE1.1 kmh ESE 9.8 mph15.8 kmh 30.15 in1021.0 mb 0.00 in0.0 mm 0.00 in0.0 mm 0.00 in0.0 mm
01:20 PM 62.4°F16.9°C 48.8°F9.3°C 61% Calm Calm 7.6 mph12.2 kmh 30.14 in1020.7 mb 0.00 in0.0 mm 0.00 in0.0 mm 0.00 in0.0 mm
01:30 PM 62.6°F17.0°C 48.5°F9.2°C 60% 0.7 mph ENE1.1 kmh ENE 4.5 mph7.2 kmh 30.13 in1020.3 mb 0.00 in0.0 mm 0.00 in0.0 mm 0.00 in0.0 mm
01:40 PM 62.6°F17.0°C 49.0°F9.4°C 61% 2.2 mph E3.5 kmh E 4.5 mph7.2 kmh 30.12 in1020.0 mb 0.00 in0.0 mm 0.00 in0.0 mm 0.00 in0.0 mm
01:50 PM 62.6°F17.0°C 49.4°F9.7°C 62% 0.7 mph ESE1.1 kmh ESE 9.2 mph14.8 kmh 30.11 in1019.6 mb 0.00 in0.0 mm 0.00 in0.0 mm 0.00 in0.0 mm
02:00 PM 62.8°F17.1°C 49.6°F9.8°C 62% 0.7 mph SSE1.1 kmh SSE 5.4 mph8.7 kmh 30.11 in1019.6 mb 0.00 in0.0 mm 0.00 in0.0 mm 0.00 in0.0 mm
02:10 PM 63.0°F17.2°C 49.8°F9.9°C 62% 0.7 mph S1.1 kmh S 6.0 mph9.7 kmh 30.09 in1019.0 mb 0.00 in0.0 mm 0.00 in0.0 mm 0.00 in0.0 mm
02:20 PM 62.6°F17.0°C 49.4°F9.7°C 62% 4.5 mph SW7.2 kmh SW 15.2 mph24.5 kmh 30.09 in1019.0 mb 0.00 in0.0 mm 0.00 in0.0 mm 0.00 in0.0 mm
02:30 PM 63.0°F17.2°C 50.6°F10.3°C 64% 0.7 mph NW1.1 kmh NW 9.2 mph14.8 kmh 30.08 in1018.6 mb 0.00 in0.0 mm 0.00 in0.0 mm 0.00 in0.0 mm
02:40 PM 62.8°F17.1°C 50.4°F10.2°C 64% Calm Calm 6.0 mph9.7 kmh 30.08 in1018.6 mb 0.00 in0.0 mm 0.00 in0.0 mm 0.00 in0.0 mm
02:50 PM 62.8°F17.1°C 50.9°F10.5°C 65% 0.7 mph SSE1.1 kmh SSE 7.6 mph12.2 kmh 30.07 in1018.3 mb 0.00 in0.0 mm 0.00 in0.0 mm 0.00 in0.0 mm
03:00 PM 62.6°F17.0°C 51.1°F10.6°C 66% 2.2 mph SE3.5 kmh SE 6.9 mph11.1 kmh 30.06 in1017.9 mb 0.00 in0.0 mm 0.00 in0.0 mm 0.00 in0.0 mm
03:10 PM 62.6°F17.0°C 51.5°F10.8°C 67% Calm Calm 3.1 mph5.0 kmh 30.06 in1017.9 mb 0.00 in0.0 mm 0.00 in0.0 mm 0.00 in0.0 mm
03:20 PM 62.6°F17.0°C 51.9°F11.1°C 68% 2.2 mph ESE3.5 kmh ESE 6.9 mph11.1 kmh 30.06 in1017.9 mb 0.00 in0.0 mm 0.00 in0.0 mm 0.00 in0.0 mm
03:30 PM 62.4°F16.9°C 52.1°F11.2°C 69% 3.1 mph E5.0 kmh E 7.6 mph12.2 kmh 30.05 in1017.6 mb 0.00 in0.0 mm 0.00 in0.0 mm 0.00 in0.0 mm
03:40 PM 62.4°F16.9°C 52.5°F11.4°C 70% 1.6 mph SE2.6 kmh SE 12.1 mph19.5 kmh 30.04 in1017.3 mb 0.00 in0.0 mm 0.00 in0.0 mm 0.00 in0.0 mm
03:50 PM 62.2°F16.8°C 53.1°F11.7°C 72% 2.2 mph SW3.5 kmh SW 6.9 mph11.1 kmh 30.03 in1016.9 mb 0.00 in0.0 mm 0.00 in0.0 mm 0.00 in0.0 mm
04:00 PM 62.4°F16.9°C 52.9°F11.6°C 71% 3.8 mph ESE6.1 kmh ESE 8.3 mph13.4 kmh 30.03 in1016.9 mb 0.00 in0.0 mm 0.00 in0.0 mm 0.00 in0.0 mm
04:10 PM 62.4°F16.9°C 52.9°F11.6°C 71% 1.6 mph SSE2.6 kmh SSE 8.3 mph13.4 kmh 30.02 in1016.6 mb 0.00 in0.0 mm 0.00 in0.0 mm 0.00 in0.0 mm
04:20 PM 62.4°F16.9°C 53.3°F11.8°C 72% 1.6 mph ESE2.6 kmh ESE 9.2 mph14.8 kmh 30.02 in1016.6 mb 0.00 in0.0 mm 0.00 in0.0 mm 0.00 in0.0 mm
04:30 PM 62.2°F16.8°C 53.1°F11.7°C 72% 0.7 mph SSE1.1 kmh SSE 8.3 mph13.4 kmh 30.01 in1016.3 mb 0.00 in0.0 mm 0.00 in0.0 mm 0.00 in0.0 mm
04:40 PM 62.1°F16.7°C 52.9°F11.6°C 72% 0.7 mph SE1.1 kmh SE 8.3 mph13.4 kmh 30.00 in1015.9 mb 0.00 in0.0 mm 0.00 in0.0 mm 0.00 in0.0 mm
04:50 PM 61.9°F16.6°C 52.8°F11.6°C 72% 1.6 mph E2.6 kmh E 7.6 mph12.2 kmh 30.00 in1015.9 mb 0.00 in0.0 mm 0.00 in0.0 mm 0.00 in0.0 mm
05:00 PM 61.9°F16.6°C 53.1°F11.7°C 73% 1.6 mph SE2.6 kmh SE 5.4 mph8.7 kmh 30.00 in1015.9 mb 0.00 in0.0 mm 0.00 in0.0 mm 0.00 in0.0 mm
05:10 PM 61.7°F16.5°C 53.0°F11.7°C 73% 1.6 mph S2.6 kmh S 6.9 mph11.1 kmh 30.00 in1015.9 mb 0.00 in0.0 mm 0.00 in0.0 mm 0.00 in0.0 mm
05:20 PM 61.5°F16.4°C 53.2°F11.8°C 74% 0.7 mph E1.1 kmh E 3.8 mph6.1 kmh 30.01 in1016.3 mb 0.00 in0.0 mm 0.00 in0.0 mm 0.00 in0.0 mm
05:30 PM 61.3°F16.3°C 53.0°F11.7°C 74% Calm Calm 6.0 mph9.7 kmh 30.00 in1015.9 mb 0.00 in0.0 mm 0.00 in0.0 mm 0.00 in0.0 mm
05:40 PM 61.2°F16.2°C 53.2°F11.8°C 75% 0.7 mph E1.1 kmh E 3.8 mph6.1 kmh 30.00 in1015.9 mb 0.00 in0.0 mm 0.00 in0.0 mm 0.00 in0.0 mm
05:50 PM 61.2°F16.2°C 53.2°F11.8°C 75% 0.7 mph S1.1 kmh S 4.5 mph7.2 kmh 29.99 in1015.6 mb 0.00 in0.0 mm 0.00 in0.0 mm 0.00 in0.0 mm
06:00 PM 61.2°F16.2°C 53.2°F11.8°C 75% Calm Calm 2.2 mph3.5 kmh 29.99 in1015.6 mb 0.00 in0.0 mm 0.00 in0.0 mm 0.00 in0.0 mm
06:10 PM 61.2°F16.2°C 53.2°F11.8°C 75% Calm Calm 2.2 mph3.5 kmh 29.98 in1015.2 mb 0.00 in0.0 mm 0.00 in0.0 mm 0.00 in0.0 mm
06:20 PM 61.5°F16.4°C 53.5°F11.9°C 75% 1.6 mph ESE2.6 kmh ESE 6.9 mph11.1 kmh 29.98 in1015.2 mb 0.00 in0.0 mm 0.00 in0.0 mm 0.00 in0.0 mm
06:30 PM 61.5°F16.4°C 53.5°F11.9°C 75% 3.1 mph SSE5.0 kmh SSE 6.9 mph11.1 kmh 29.98 in1015.2 mb 0.00 in0.0 mm 0.00 in0.0 mm 0.00 in0.0 mm
06:40 PM 61.5°F16.4°C 53.5°F11.9°C 75% 0.7 mph SE1.1 kmh SE 3.8 mph6.1 kmh 29.98 in1015.2 mb 0.00 in0.0 mm 0.00 in0.0 mm 0.00 in0.0 mm
06:50 PM 61.5°F16.4°C 53.2°F11.8°C 74% 1.6 mph NE2.6 kmh NE 5.4 mph8.7 kmh 29.98 in1015.2 mb 0.00 in0.0 mm 0.00 in0.0 mm 0.00 in0.0 mm
07:00 PM 61.5°F16.4°C 53.2°F11.8°C 74% 2.2 mph WSW3.5 kmh WSW 5.4 mph8.7 kmh 29.98 in1015.2 mb 0.00 in0.0 mm 0.00 in0.0 mm 0.00 in0.0 mm
07:10 PM 61.7°F16.5°C 53.0°F11.7°C 73% 0.7 mph S1.1 kmh S 6.9 mph11.1 kmh 29.98 in1015.2 mb 0.00 in0.0 mm 0.00 in0.0 mm 0.00 in0.0 mm
07:20 PM 61.9°F16.6°C 53.1°F11.7°C 73% Calm Calm 4.5 mph7.2 kmh 29.98 in1015.2 mb 0.00 in0.0 mm 0.00 in0.0 mm 0.00 in0.0 mm
07:30 PM 61.9°F16.6°C 53.1°F11.7°C 73% Calm Calm 4.5 mph7.2 kmh 29.98 in1015.2 mb 0.00 in0.0 mm 0.00 in0.0 mm 0.00 in0.0 mm
07:40 PM 62.1°F16.7°C 53.3°F11.8°C 73% 3.1 mph SE5.0 kmh SE 7.6 mph12.2 kmh 29.98 in1015.2 mb 0.00 in0.0 mm 0.00 in0.0 mm 0.00 in0.0 mm
07:50 PM 62.2°F16.8°C 53.1°F11.7°C 72% Calm Calm 4.5 mph7.2 kmh 29.98 in1015.2 mb 0.00 in0.0 mm 0.00 in0.0 mm 0.00 in0.0 mm
08:00 PM 62.2°F16.8°C 53.1°F11.7°C 72% 2.2 mph SE3.5 kmh SE 6.0 mph9.7 kmh 29.99 in1015.6 mb 0.00 in0.0 mm 0.00 in0.0 mm 0.00 in0.0 mm
08:10 PM 62.1°F16.7°C 53.3°F11.8°C 73% 3.1 mph SW5.0 kmh SW 4.5 mph7.2 kmh 29.99 in1015.6 mb 0.00 in0.0 mm 0.00 in0.0 mm 0.00 in0.0 mm
08:20 PM 62.1°F16.7°C 53.3°F11.8°C 73% 1.6 mph SE2.6 kmh SE 7.6 mph12.2 kmh 29.98 in1015.2 mb 0.00 in0.0 mm 0.00 in0.0 mm 0.00 in0.0 mm
08:30 PM 62.1°F16.7°C 53.7°F12.1°C 74% 0.7 mph SE1.1 kmh SE 7.6 mph12.2 kmh 29.98 in1015.2 mb 0.00 in0.0 mm 0.00 in0.0 mm 0.00 in0.0 mm
08:40 PM 62.1°F16.7°C 54.1°F12.3°C 75% 1.6 mph SSE2.6 kmh SSE 3.1 mph5.0 kmh 29.98 in1015.2 mb 0.00 in0.0 mm 0.00 in0.0 mm 0.00 in0.0 mm
08:50 PM 62.1°F16.7°C 54.4°F12.4°C 76% Calm Calm 3.8 mph6.1 kmh 29.97 in1014.9 mb 0.00 in0.0 mm 0.00 in0.0 mm 0.00 in0.0 mm
09:00 PM 61.9°F16.6°C 54.6°F12.6°C 77% Calm Calm 3.1 mph5.0 kmh 29.97 in1014.9 mb 0.00 in0.0 mm 0.00 in0.0 mm 0.00 in0.0 mm
09:10 PM 62.1°F16.7°C 54.8°F12.7°C 77% 3.8 mph SSE6.1 kmh SSE 6.9 mph11.1 kmh 29.97 in1014.9 mb 0.00 in0.0 mm 0.00 in0.0 mm 0.00 in0.0 mm
09:20 PM 62.2°F16.8°C 55.0°F12.8°C 77% 1.6 mph SE2.6 kmh SE 6.9 mph11.1 kmh 29.95 in1014.2 mb 0.00 in0.0 mm 0.00 in0.0 mm 0.00 in0.0 mm
09:30 PM 62.1°F16.7°C 55.1°F12.8°C 78% 0.7 mph S1.1 kmh S 3.8 mph6.1 kmh 29.95 in1014.2 mb 0.00 in0.0 mm 0.00 in0.0 mm 0.00 in0.0 mm
09:40 PM 62.2°F16.8°C 55.7°F13.2°C 79% 1.6 mph ESE2.6 kmh ESE 3.1 mph5.0 kmh 29.94 in1013.9 mb 0.00 in0.0 mm 0.00 in0.0 mm 0.00 in0.0 mm
09:50 PM 61.9°F16.6°C 55.7°F13.2°C 80% 1.6 mph SE2.6 kmh SE 3.1 mph5.0 kmh 29.94 in1013.9 mb 0.00 in0.0 mm 0.00 in0.0 mm 0.00 in0.0 mm
10:00 PM 61.3°F16.3°C 55.5°F13.1°C 81% Calm Calm 3.8 mph6.1 kmh 29.94 in1013.9 mb 0.00 in0.0 mm 0.00 in0.0 mm 0.00 in0.0 mm
10:10 PM 61.0°F16.1°C 55.8°F13.2°C 83% 0.7 mph NE1.1 kmh NE 3.1 mph5.0 kmh 29.93 in1013.5 mb 0.00 in0.0 mm 0.00 in0.0 mm 0.00 in0.0 mm
10:20 PM 60.8°F16.0°C 55.9°F13.3°C 84% Calm Calm 4.5 mph7.2 kmh 29.93 in1013.5 mb 0.00 in0.0 mm 0.00 in0.0 mm 0.00 in0.0 mm
10:30 PM 60.6°F15.9°C 56.4°F13.6°C 86% 1.6 mph ENE2.6 kmh ENE 2.2 mph3.5 kmh 29.93 in1013.5 mb 0.00 in0.0 mm 0.00 in0.0 mm 0.00 in0.0 mm
10:40 PM 60.6°F15.9°C 56.4°F13.6°C 86% 0.7 mph SW1.1 kmh SW 3.1 mph5.0 kmh 29.93 in1013.5 mb 0.00 in0.0 mm 0.00 in0.0 mm 0.00 in0.0 mm
10:50 PM 60.6°F15.9°C 56.7°F13.7°C 87% 1.6 mph NNE2.6 kmh NNE 3.1 mph5.0 kmh 29.93 in1013.5 mb 0.00 in0.0 mm 0.00 in0.0 mm 0.00 in0.0 mm
11:00 PM 60.6°F15.9°C 56.7°F13.7°C 87% Calm Calm 3.1 mph5.0 kmh 29.93 in1013.5 mb 0.00 in0.0 mm 0.00 in0.0 mm 0.00 in0.0 mm
11:10 PM 60.4°F15.8°C 56.6°F13.7°C 87% Calm Calm 4.5 mph7.2 kmh 29.93 in1013.5 mb 0.00 in0.0 mm 0.00 in0.0 mm 0.00 in0.0 mm
11:20 PM 60.4°F15.8°C 56.9°F13.8°C 88% Calm Calm 1.6 mph2.6 kmh 29.92 in1013.2 mb 0.00 in0.0 mm 0.00 in0.0 mm 0.00 in0.0 mm
11:30 PM 60.1°F15.6°C 56.8°F13.8°C 89% Calm Calm 5.4 mph8.7 kmh 29.92 in1013.2 mb 0.06 in1.5 mm 0.36 in9.1 mm 0.05 in1.3 mm
11:40 PM 59.5°F15.3°C 56.6°F13.7°C 90% Calm Calm 2.2 mph3.5 kmh 29.91 in1012.9 mb 0.12 in3.0 mm 0.36 in9.1 mm 0.12 in3.0 mm
11:50 PM 59.2°F15.1°C 56.6°F13.7°C 91% Calm Calm 1.6 mph2.6 kmh 29.91 in1012.9 mb 0.17 in4.3 mm 0.30 in7.6 mm 0.17 in4.3 mm